Latest Weather Observations for Merriwa

IDN60801

Issued at 5:02 pm EDT Wednesday 22 February 2017 (issued every 30 minutes, with the page automatically refreshed every 10 minutes)

About weather observations | Map of weather stations | Latest weather observations for NSW | Other Formats
Station Details ID: 061287 Name: MERRIWA (ROSCOMMON) Lat: -32.19 Lon: 150.17 Height: 375.0 m
Data from the previous 72 hours. | See also: Recent months at Merriwa
Date/Time
EDT
Temp
°C
App
Temp
°C
Dew
Point
°C
Rel
Hum
%
Delta-T
°C
Wind Press
QNH
hPa
Press
MSL
hPa
Rain since
9am
mm
Dir  Spd
km/h
Gust
km/h
Spd
kts
Gust
kts
22/04:30pm 32.8 29.9 8.3 22 13.9 ESE 13 20 7 11 1016.7 1015.0 0.0
22/04:00pm 33.6 32.1 9.0 22 14.1 NNE 7 13 4 7 1017.0 1015.3 0.0
22/03:30pm 33.0 30.7 9.1 23 13.7 E 11 20 6 11 1017.5 1015.7 0.0
22/03:00pm 32.1 29.3 8.4 23 13.4 ENE 13 20 7 11 1018.0 1016.2 0.0
22/02:30pm 32.0 29.4 9.5 25 12.9 N 13 20 7 11 1018.6 1016.8 0.0
22/02:00pm 31.9 28.9 10.6 27 12.4 NE 17 24 9 13 1019.0 1017.2 0.0
22/01:30pm 31.0 29.2 10.9 29 11.8 NE 11 22 6 12 1019.4 1017.7 0.0
22/01:00pm 29.7 28.4 11.2 31 10.8 SE 9 15 5 8 1019.8 1018.1 0.0
22/12:30pm 29.0 27.7 12.4 36 9.9 ESE 11 20 6 11 1020.4 1018.6 0.0
22/12:00pm 28.5 27.6 13.6 40 9.0 E 11 20 6 11 1021.0 1019.2 0.0
22/11:30am 27.9 27.6 14.5 44 8.2 ESE 9 20 5 11 1021.4 1019.6 0.0
22/11:00am 25.9 24.8 14.4 49 6.9 E 13 20 7 11 1021.7 1020.0 0.0
22/10:30am 24.9 24.1 15.2 54 5.9 ESE 13 22 7 12 1021.9 1020.2 0.0
22/10:00am 23.3 22.5 15.1 60 5.0 ESE 13 19 7 10 1022.0 1020.3 0.0
22/09:30am 22.1 21.3 15.0 64 4.3 E 13 20 7 11 1022.0 1020.3 0.0
22/09:00am 21.0 19.4 15.1 69 3.5 ESE 17 24 9 13 1021.9 1020.2 0.0
22/08:30am 19.6 19.2 15.3 76 2.6 E 11 17 6 9 1021.9 1020.2 0.0
22/08:00am 18.4 19.1 16.0 86 1.4 E 7 11 4 6 1021.6 1019.9 0.0
22/07:30am 16.0 16.7 15.7 98 0.2 ENE 6 9 3 5 1021.3 1019.5 0.0
22/07:00am 14.2 15.4 13.9 98 0.2 CALM 0 0 0 0 1020.9 1019.1 0.0
22/06:30am 13.3 13.1 13.0 98 0.2 ENE 6 7 3 4 1020.5 1018.7 0.0
22/06:00am 13.3 13.1 13.0 98 0.2 ESE 6 7 3 4 1020.3 1018.5 0.0
22/05:30am 14.1 14.2 13.8 98 0.2 ESE 6 7 3 4 1020.1 1018.3 0.0
22/05:00am 14.2 14.3 13.9 98 0.2 ESE 6 7 3 4 1019.7 1018.0 0.0
22/04:30am 14.2 15.4 13.9 98 0.2 CALM 0 0 0 0 1019.8 1018.1 0.0
22/04:00am 13.7 13.4 12.6 93 0.6 ESE 6 7 3 4 1019.9 1018.2 0.0
22/03:30am 14.9 16.0 13.6 92 0.7 CALM 0 0 0 0 1019.6 1017.9 0.0
22/03:00am 14.9 15.7 12.4 85 1.4 CALM 0 0 0 0 1019.8 1018.1 0.0
22/02:30am 16.2 16.0 13.7 85 1.4 ESE 7 11 4 6 1019.9 1018.2 0.0
22/02:00am 16.6 16.0 13.5 82 1.8 ESE 9 11 5 6 1020.1 1018.3 0.0
22/01:30am 17.4 16.1 13.7 79 2.1 SE 13 15 7 8 1019.9 1018.2 0.0
22/01:00am 18.0 16.7 13.7 76 2.5 ESE 13 17 7 9 1019.9 1018.2 0.0
22/12:30am 18.9 17.7 14.0 73 2.9 ESE 13 19 7 10 1020.1 1018.3 0.0
22/12:00am 19.0 17.3 13.6 71 3.1 ESE 15 20 8 11 1020.1 1018.3 0.0
 
Date/Time
EDT
Temp
°C
App
Temp
°C
Dew
Point
°C
Rel
Hum
%
Delta-T
°C
Wind Press
QNH
hPa
Press
MSL
hPa
Rain since
9am
mm
Dir  Spd
km/h
Gust
km/h
Spd
kts
Gust
kts
21/11:30pm 20.0 18.0 13.9 68 3.6 ESE 17 24 9 13 1020.1 1018.3 0.0
21/11:00pm 20.1 17.7 13.8 67 3.7 ESE 19 30 10 16 1020.3 1018.5 0.0
21/10:30pm 20.5 18.4 13.5 64 4.1 E 17 26 9 14 1020.3 1018.5 0.0
21/10:00pm 21.3 19.2 13.7 62 4.5 E 17 26 9 14 1020.3 1018.5 0.0
21/09:30pm 22.0 19.0 13.6 59 4.9 E 22 33 12 18 1020.1 1018.3 0.0
21/09:00pm 22.7 20.1 13.2 55 5.6 ESE 19 30 10 16 1019.5 1017.8 0.0
21/08:30pm 23.6 20.9 11.6 47 6.9 ESE 17 26 9 14 1018.7 1016.9 0.0
21/08:00pm 23.8 20.0 3.7 27 10.0 ESE 13 20 7 11 1018.2 1016.4 0.0
21/07:30pm 26.2 21.6 3.5 23 11.4 ESE 17 24 9 13 1017.6 1015.8 0.0
21/07:00pm 28.6 24.6 2.7 19 13.1 E 13 19 7 10 1017.1 1015.4 0.0
21/06:30pm 29.9 25.8 2.2 17 14.0 ENE 13 20 7 11 1016.8 1015.1 0.0
21/06:00pm 30.5 26.7 -1.0 13 15.1 ESE 9 15 5 8 1016.7 1015.0 0.0
21/05:30pm 30.7 26.4 -1.9 12 15.4 SSE 11 17 6 9 1016.6 1014.8 0.0
21/05:00pm 31.1 27.6 -1.6 12 15.6 ENE 7 13 4 7 1016.6 1014.8 0.0
21/04:30pm 30.8 26.8 -1.9 12 15.5 SSW 9 13 5 7 1016.6 1014.8 0.0
21/04:00pm 31.9 27.5 0.1 13 15.7 WNW 13 24 7 13 1016.8 1015.1 0.0
21/03:30pm 30.5 27.2 0.0 14 14.9 S 7 19 4 10 1017.0 1015.3 0.0
21/03:00pm 30.9 26.1 0.3 14 15.0 WSW 15 20 8 11 1017.3 1015.5 0.0
21/02:30pm 30.0 26.8 -0.4 14 14.7 NE 6 11 3 6 1017.8 1016.0 0.0
21/02:00pm 28.7 24.7 0.4 16 13.7 WNW 11 20 6 11 1018.2 1016.4 0.0
21/01:30pm 28.1 25.1 2.3 19 12.9 S 7 15 4 8 1018.5 1016.7 0.0
21/01:00pm 28.1 23.6 2.3 19 12.9 N 15 26 8 14 1019.0 1017.2 0.0
21/12:30pm 26.5 23.8 5.5 26 11.0 ENE 9 17 5 9 1019.5 1017.8 0.0
21/12:00pm 25.5 22.8 5.7 28 10.3 ENE 9 19 5 10 1020.1 1018.3 0.0
21/11:30am 25.8 23.6 7.9 32 9.7 ENE 9 15 5 8 1020.4 1018.6 0.0
21/11:00am 23.9 21.1 7.1 34 8.9 E 11 19 6 10 1020.7 1018.9 0.0
21/10:30am 22.0 19.0 7.8 40 7.5 E 13 20 7 11 1020.7 1018.9 0.0
21/10:00am 20.7 16.9 7.7 43 6.8 SE 17 26 9 14 1020.6 1018.8 0.0
21/09:30am 20.3 17.0 6.6 41 7.0 ESE 13 20 7 11 1020.5 1018.7 0.0
21/09:00am 19.3 16.3 2.2 32 8.0 ENE 7 9 4 5 1020.2 1018.4 0.0
21/08:30am 16.9 15.0 0.5 33 7.3 CALM 0 0 0 0 1019.6 1017.9 0.0
21/08:00am 14.4 12.8 2.3 44 5.4 CALM 0 0 0 0 1019.3 1017.6 0.0
21/07:30am 10.1 8.6 3.2 62 3.1 CALM 0 0 0 0 1019.0 1017.2 0.0
21/07:00am 7.2 5.6 2.5 72 2.0 CALM 0 2 0 1 1018.7 1016.9 0.0
21/06:30am 7.8 4.7 1.6 65 2.6 NNE 7 9 4 5 1018.2 1016.4 0.0
21/06:00am 8.1 6.4 1.7 64 2.7 CALM 0 0 0 0 1018.0 1016.2 0.0
21/05:30am 8.9 5.8 1.6 60 3.1 WNW 7 9 4 5 1017.8 1016.0 0.0
21/05:00am 10.4 8.6 1.0 52 4.0 CALM 0 0 0 0 1017.6 1015.8 0.0
21/04:30am 10.1 8.2 0.7 52 3.9 CALM 0 0 0 0 1017.4 1015.6 0.0
21/04:00am 10.0 8.1 0.6 52 3.9 CALM 0 0 0 0 1016.9 1015.2 0.0
21/03:30am 12.8 9.1 -0.1 41 5.4 WNW 9 11 5 6 1016.9 1015.2 0.0
21/03:00am 12.8 8.7 -0.1 41 5.4 WNW 11 13 6 7 1017.1 1015.4 0.0
21/02:30am 13.2 10.4 -0.1 40 5.6 WNW 4 11 2 6 1017.1 1015.4 0.0
21/02:00am 13.0 9.5 -1.3 37 5.9 WNW 7 9 4 5 1017.1 1015.4 0.0
21/01:30am 13.8 9.6 -1.0 36 6.2 WNW 11 13 6 7 1017.4 1015.6 0.0
21/01:00am 14.2 9.6 -1.0 35 6.4 WNW 13 15 7 8 1017.4 1015.6 0.0
21/12:30am 15.0 10.8 -1.1 33 6.8 W 11 15 6 8 1017.4 1015.6 0.0
21/12:00am 15.4 11.2 -1.2 32 7.0 WNW 11 13 6 7 1017.1 1015.4 0.0
 
Date/Time
EDT
Temp
°C
App
Temp
°C
Dew
Point
°C
Rel
Hum
%
Delta-T
°C
Wind Press
QNH
hPa
Press
MSL
hPa
Rain since
9am
mm
Dir  Spd
km/h
Gust
km/h
Spd
kts
Gust
kts
20/11:30pm 15.1 10.6 -0.6 34 6.7 WNW 13 15 7 8 1016.8 1015.1 0.0
20/11:00pm 15.8 11.7 -0.4 33 7.0 WNW 11 11 6 6 1016.7 1015.0 0.0
20/10:30pm 16.1 11.9 -0.6 32 7.2 WNW 11 15 6 8 1016.5 1014.7 0.0
20/10:00pm 16.2 12.1 -0.1 33 7.1 WNW 11 13 6 7 1016.3 1014.5 0.0
20/09:30pm 16.6 13.0 0.3 33 7.2 W 9 13 5 7 1015.9 1014.1 0.0
20/09:00pm 16.4 13.1 0.1 33 7.1 W 7 9 4 5 1015.6 1013.8 0.0
20/08:30pm 16.4 13.0 -0.8 31 7.4 WSW 7 9 4 5 1015.1 1013.3 0.0
20/08:00pm 21.0 16.8 -0.9 23 9.8 WSW 11 15 6 8 1014.6 1012.8 0.0
20/07:30pm 23.1 18.6 -0.4 21 10.8 WSW 13 20 7 11 1013.9 1012.1 0.0
20/07:00pm 24.7 20.2 -0.4 19 11.7 WSW 13 20 7 11 1013.2 1011.4 0.0
20/06:30pm 25.6 20.3 -0.5 18 12.2 W 17 32 9 17 1012.8 1011.0 0.0
20/06:00pm 26.3 20.5 0.1 18 12.4 W 20 30 11 16 1012.4 1010.6 0.0
20/05:30pm 26.7 21.0 0.4 18 12.6 WNW 20 32 11 17 1012.1 1010.3 0.0
20/05:00pm 27.2 21.2 0.8 18 12.8 WNW 22 35 12 19 1012.0 1010.1 0.0
20/04:30pm 26.8 20.6 2.0 20 12.2 WNW 24 39 13 21 1011.8 1009.9 0.0
20/04:00pm 26.1 21.2 2.1 21 11.8 W 17 30 9 16 1011.8 1009.9 0.0
20/03:30pm 26.8 20.8 1.3 19 12.4 W 22 35 12 19 1012.0 1010.1 0.0
20/03:00pm 26.1 20.1 3.4 23 11.4 W 24 35 13 19 1012.2 1010.4 0.0
20/02:30pm 26.9 21.8 4.0 23 11.7 NW 20 35 11 19 1012.2 1010.4 0.0
20/02:00pm 26.1 20.5 3.4 23 11.4 WNW 22 37 12 20 1012.8 1011.0 0.0
20/01:30pm 25.1 19.5 3.7 25 10.7 WNW 22 39 12 21 1012.9 1011.1 0.0
20/01:00pm 24.4 18.7 3.1 25 10.5 NW 22 32 12 17 1013.2 1011.4 0.0
20/12:30pm 23.7 18.4 3.1 26 10.1 W 20 32 11 17 1013.5 1011.7 0.0
20/12:00pm 24.0 19.2 4.9 29 9.7 W 19 33 10 18 1013.5 1011.7 0.0
20/11:30am 22.3 16.9 4.4 31 8.9 W 22 33 12 18 1013.9 1012.1 0.0
20/11:00am 21.4 16.4 4.5 33 8.4 W 20 30 11 16 1014.0 1012.2 0.0
20/10:30am 20.9 15.9 4.5 34 8.1 WSW 20 30 11 16 1014.2 1012.4 0.0
20/10:00am 20.3 15.3 4.8 36 7.7 WSW 20 30 11 16 1014.1 1012.3 0.0
20/09:30am 19.2 15.2 4.9 39 7.1 W 15 24 8 13 1013.9 1012.1 0.0
20/09:00am 17.5 13.7 3.8 40 6.5 W 13 24 7 13 1013.9 1012.1 0.0
20/08:30am 16.6 12.7 3.3 41 6.2 W 13 20 7 11 1013.7 1011.9 0.0
20/08:00am 15.1 11.2 3.3 45 5.5 WNW 13 19 7 10 1013.5 1011.7 0.0
20/07:30am 13.5 10.0 3.3 50 4.7 WNW 11 17 6 9 1013.4 1011.6 0.0
20/07:00am 10.7 6.7 2.8 58 3.5 NW 13 17 7 9 1013.2 1011.4 0.0
20/06:30am 10.3 5.9 2.7 59 3.3 NW 15 17 8 9 1012.8 1011.0 0.0
20/06:00am 10.5 6.5 2.6 58 3.5 WNW 13 15 7 8 1012.4 1010.6 0.0
20/05:30am 10.7 6.6 2.5 57 3.6 NW 13 15 7 8 1012.2 1010.4 0.0
20/05:00am 11.5 8.1 1.7 51 4.3 WNW 9 13 5 7 1011.8 1009.9 0.0
20/04:30am 12.4 7.8 1.7 48 4.7 WNW 15 17 8 9 1011.3 1009.5 0.0
20/04:00am 11.7 7.6 2.2 52 4.2 WNW 13 17 7 9 1011.0 1009.2 0.0
20/03:30am 11.6 7.5 2.1 52 4.2 NW 13 15 7 8 1010.8 1009.0 0.0
20/03:00am 12.8 8.2 1.8 47 4.8 WNW 15 17 8 9 1010.6 1008.8 0.0
20/02:30am 12.8 8.6 1.8 47 4.8 WNW 13 17 7 9 1010.6 1008.8 0.0
20/02:00am 15.1 11.7 1.6 40 6.0 W 9 13 5 7 1010.5 1008.7 0.0
20/01:30am 14.0 10.5 1.0 41 5.7 W 9 11 5 6 1010.5 1008.7 0.0
20/01:00am 15.2 11.5 0.2 36 6.5 W 9 13 5 7 1010.4 1008.6 0.0
20/12:30am 17.0 13.0 0.2 32 7.4 W 11 15 6 8 1010.3 1008.5 0.0
20/12:00am 18.8 14.0 0.4 29 8.3 W 15 22 8 12 1010.0 1008.2 0.0
 
Date/Time
EDT
Temp
°C
App
Temp
°C
Dew
Point
°C
Rel
Hum
%
Delta-T
°C
Wind Press
QNH
hPa
Press
MSL
hPa
Rain since
9am
mm
Dir  Spd
km/h
Gust
km/h
Spd
kts
Gust
kts
19/11:30pm 19.8 14.3 0.3 27 8.8 W 19 28 10 15 1009.7 1007.9 0.0
19/11:00pm 20.6 14.8 -0.1 25 9.4 W 20 28 11 15 1009.7 1007.9 0.0
19/10:30pm 21.0 15.4 -0.3 24 9.6 W 19 26 10 14 1009.6 1007.7 0.0
19/10:00pm 21.5 16.2 -0.5 23 10.0 W 17 26 9 14 1009.5 1007.6 0.0
19/09:30pm 22.0 16.3 -0.7 22 10.3 W 19 30 10 16 1009.0 1007.1 0.0
19/09:00pm 22.1 17.2 -0.6 22 10.3 W 15 24 8 13 1008.5 1006.7 0.0
19/08:30pm 22.8 16.9 -2.0 19 11.0 W 19 30 10 16 1007.7 1005.9 0.0
19/08:00pm 24.3 17.8 -2.3 17 11.9 WSW 22 33 12 18 1007.5 1005.7 0.0
19/07:30pm 25.4 18.9 -2.2 16 12.5 W 22 33 12 18 1007.4 1005.6 0.0
19/07:00pm 26.6 20.8 -1.3 16 13.0 W 19 32 10 17 1007.0 1005.1 0.0
19/06:30pm 26.6 20.9 0.4 18 12.5 W 20 37 11 20 1006.4 1004.5 0.0
19/06:00pm 28.4 21.5 0.2 16 13.6 WNW 26 35 14 19 1005.8 1004.0 0.0
19/05:30pm 28.7 23.1 1.3 17 13.5 W 20 33 11 18 1005.5 1003.7 0.0

Other Formats:

Comma delimited format used in spreadsheet applications
http://www.bom.gov.au/fwo/IDN60801/IDN60801.95754.axf

JavaScript Object Notation format (JSON) in row-major order
http://www.bom.gov.au/fwo/IDN60801/IDN60801.95754.json